createdAt,value
2023-05-12T00:00:24.037Z,0.00
2023-05-12T00:01:24.023Z,0.00
2023-05-12T00:02:24.102Z,0.00
2023-05-12T00:03:24.163Z,0.00
2023-05-12T00:04:24.004Z,0.00
2023-05-12T00:05:24.063Z,0.00
2023-05-12T00:06:23.961Z,0.00
2023-05-12T00:07:23.958Z,0.00
2023-05-12T00:08:23.941Z,0.00
2023-05-12T00:09:23.940Z,0.00
2023-05-12T00:10:23.949Z,0.00
2023-05-12T00:11:23.951Z,0.00
2023-05-12T00:12:23.888Z,0.00
2023-05-12T00:13:23.910Z,0.00
2023-05-12T00:14:23.876Z,0.00
2023-05-12T00:15:23.863Z,0.00
2023-05-12T00:16:23.906Z,0.00
2023-05-12T00:17:23.830Z,0.00
2023-05-12T00:18:23.835Z,0.00
2023-05-12T00:19:23.814Z,0.00
2023-05-12T00:20:23.843Z,0.00
2023-05-12T00:21:23.789Z,0.00
2023-05-12T00:22:23.777Z,0.00
2023-05-12T00:23:23.774Z,0.00
2023-05-12T00:24:23.776Z,0.00
2023-05-12T00:25:23.731Z,0.00
2023-05-12T00:26:23.763Z,0.00
2023-05-12T00:27:23.722Z,0.00
2023-05-12T00:28:23.754Z,0.00
2023-05-12T00:29:23.684Z,0.00
2023-05-12T00:30:23.771Z,0.00
2023-05-12T00:31:23.713Z,0.00
2023-05-12T00:32:23.709Z,0.00
2023-05-12T00:33:23.681Z,0.00
2023-05-12T00:34:23.772Z,0.00
2023-05-12T00:35:23.648Z,0.00
2023-05-12T00:36:23.676Z,0.00
2023-05-12T00:37:23.613Z,0.00
2023-05-12T00:38:23.617Z,0.00
2023-05-12T00:39:23.607Z,0.00
2023-05-12T00:40:23.617Z,0.00
2023-05-12T00:41:23.596Z,0.00
2023-05-12T00:42:23.606Z,0.00
2023-05-12T00:43:23.555Z,0.00
2023-05-12T00:44:23.559Z,0.00
2023-05-12T00:45:23.542Z,0.00
2023-05-12T00:46:23.577Z,0.00
2023-05-12T00:47:23.592Z,0.00
2023-05-12T00:48:23.536Z,0.00
2023-05-12T00:49:23.483Z,0.00
2023-05-12T00:50:23.487Z,0.00
2023-05-12T00:51:23.471Z,0.00
2023-05-12T00:52:23.480Z,0.00
2023-05-12T00:53:23.474Z,0.00
2023-05-12T00:54:23.467Z,0.00
2023-05-12T00:55:23.420Z,0.00
2023-05-12T00:56:23.422Z,0.00
2023-05-12T00:57:23.411Z,0.00
2023-05-12T00:58:23.403Z,0.00
2023-05-12T00:59:23.411Z,0.00
2023-05-12T01:00:23.420Z,0.00
2023-05-12T01:01:23.386Z,0.00
2023-05-12T01:02:23.426Z,0.00
2023-05-12T01:03:23.455Z,0.00
2023-05-12T01:04:23.396Z,0.00
2023-05-12T01:05:23.320Z,0.00
2023-05-12T01:06:23.326Z,0.00
2023-05-12T01:07:23.296Z,0.00
2023-05-12T01:08:23.352Z,0.00
2023-05-12T01:09:23.295Z,0.00
2023-05-12T01:10:23.533Z,0.00
2023-05-12T01:11:23.327Z,0.00
2023-05-12T01:12:23.265Z,0.00
2023-05-12T01:13:23.247Z,0.00
2023-05-12T01:14:23.237Z,0.00
2023-05-12T01:15:23.233Z,0.00
2023-05-12T01:16:23.221Z,0.00
2023-05-12T01:17:23.238Z,0.00
2023-05-12T01:18:23.302Z,0.00
2023-05-12T01:19:23.182Z,0.00
2023-05-12T01:20:23.250Z,0.00
2023-05-12T01:21:23.166Z,0.00
2023-05-12T01:22:23.153Z,0.00
2023-05-12T01:23:23.142Z,0.00
2023-05-12T01:24:23.128Z,0.00
2023-05-12T01:25:23.138Z,0.00
2023-05-12T01:26:23.110Z,0.00
2023-05-12T01:27:23.096Z,0.00
2023-05-12T01:28:23.087Z,0.00
2023-05-12T01:29:23.066Z,0.00
2023-05-12T01:30:23.407Z,0.00
2023-05-12T01:31:23.114Z,0.00
2023-05-12T01:32:23.094Z,0.00
2023-05-12T01:33:23.024Z,0.00
2023-05-12T01:34:23.173Z,0.00
2023-05-12T01:35:23.013Z,0.00
2023-05-12T01:36:23.019Z,0.00
2023-05-12T01:37:22.971Z,0.00
2023-05-12T01:38:22.982Z,0.00
2023-05-12T01:39:23.010Z,0.00
2023-05-12T01:40:23.022Z,0.00
2023-05-12T01:41:22.940Z,0.00
2023-05-12T01:42:22.974Z,0.00
2023-05-12T01:43:22.913Z,0.00
2023-05-12T01:44:22.918Z,0.00
2023-05-12T01:45:22.938Z,0.00
2023-05-12T01:46:22.923Z,0.00
2023-05-12T01:47:22.925Z,0.00
2023-05-12T01:48:22.888Z,0.00
2023-05-12T01:49:22.846Z,0.00
2023-05-12T01:50:22.859Z,0.00
2023-05-12T01:51:22.821Z,0.00
2023-05-12T01:52:22.872Z,0.00
2023-05-12T01:53:22.810Z,0.00
2023-05-12T01:54:22.796Z,0.00
2023-05-12T01:55:22.855Z,0.00
2023-05-12T01:56:22.827Z,0.00
2023-05-12T01:57:22.790Z,0.00
2023-05-12T01:58:22.789Z,0.00
2023-05-12T01:59:22.811Z,0.00
2023-05-12T02:00:22.887Z,0.00
2023-05-12T02:01:22.802Z,0.00
2023-05-12T02:02:22.719Z,0.00
2023-05-12T02:03:22.819Z,0.00
2023-05-12T02:04:22.704Z,0.00
2023-05-12T02:05:22.698Z,0.00
2023-05-12T02:06:22.688Z,0.00
2023-05-12T02:07:22.696Z,0.00
2023-05-12T02:08:22.675Z,0.00
2023-05-12T02:09:22.700Z,0.00
2023-05-12T02:10:22.856Z,0.00
2023-05-12T02:11:22.624Z,0.00
2023-05-12T02:12:22.620Z,0.00
2023-05-12T02:13:22.621Z,0.00
2023-05-12T02:14:22.606Z,0.00
2023-05-12T02:15:22.567Z,0.00
2023-05-12T02:16:22.698Z,0.00
2023-05-12T02:17:22.566Z,0.00
2023-05-12T02:18:22.658Z,0.00
2023-05-12T02:19:22.562Z,0.00
2023-05-12T02:20:22.660Z,0.00
2023-05-12T02:21:22.505Z,0.00
2023-05-12T02:22:22.507Z,0.00
2023-05-12T02:23:22.497Z,0.00
2023-05-12T02:24:22.560Z,0.00
2023-05-12T02:25:22.490Z,0.00
2023-05-12T02:26:22.460Z,0.00
2023-05-12T02:27:22.452Z,0.00
2023-05-12T02:28:22.433Z,0.00
2023-05-12T02:29:22.469Z,0.00
2023-05-12T02:30:22.611Z,0.00
2023-05-12T02:31:22.476Z,0.00
2023-05-12T02:32:22.420Z,0.00
2023-05-12T02:33:22.402Z,0.00
2023-05-12T02:34:22.416Z,0.00
2023-05-12T02:35:22.386Z,0.00
2023-05-12T02:36:22.362Z,0.00
2023-05-12T02:37:22.357Z,0.00
2023-05-12T02:38:22.336Z,0.00
2023-05-12T02:39:22.342Z,0.00
2023-05-12T02:40:22.557Z,0.00
2023-05-12T02:41:22.371Z,0.00
2023-05-12T02:42:22.299Z,0.00
2023-05-12T02:43:22.290Z,0.00
2023-05-12T02:44:22.309Z,0.00
2023-05-12T02:45:22.257Z,0.00
2023-05-12T02:46:22.255Z,0.00
2023-05-12T02:47:22.270Z,0.00
2023-05-12T02:48:22.239Z,0.00
2023-05-12T02:49:22.249Z,0.00
2023-05-12T02:50:22.490Z,0.00
2023-05-12T02:51:22.209Z,0.00
2023-05-12T02:52:22.197Z,0.00
2023-05-12T02:53:22.180Z,0.00
2023-05-12T02:54:22.176Z,0.00
2023-05-12T02:55:22.188Z,0.00
2023-05-12T02:56:22.204Z,0.00
2023-05-12T02:57:22.141Z,0.00
2023-05-12T02:58:22.131Z,0.00
2023-05-12T02:59:22.133Z,0.00
2023-05-12T03:00:22.241Z,0.00
2023-05-12T03:01:22.139Z,0.00
2023-05-12T03:02:22.136Z,0.00
2023-05-12T03:03:22.154Z,0.00
2023-05-12T03:04:22.058Z,0.00
2023-05-12T03:05:22.061Z,0.00
2023-05-12T03:06:22.063Z,0.00
2023-05-12T03:07:22.057Z,0.00
2023-05-12T03:08:22.022Z,0.00
2023-05-12T03:09:22.010Z,0.00
2023-05-12T03:10:22.081Z,0.00
2023-05-12T03:11:22.004Z,0.00
2023-05-12T03:12:22.117Z,0.00
2023-05-12T03:13:21.987Z,0.00
2023-05-12T03:14:21.961Z,0.00
2023-05-12T03:15:27.985Z,0.00
2023-05-12T03:16:21.901Z,2.00
2023-05-12T03:17:21.915Z,1.00
2023-05-12T03:18:21.899Z,2.00
2023-05-12T03:19:21.858Z,1.00
2023-05-12T03:20:22.172Z,5.00
2023-05-12T03:21:21.842Z,1.00
2023-05-12T03:22:21.841Z,1.00
2023-05-12T03:23:21.827Z,2.00
2023-05-12T03:24:21.800Z,2.00
2023-05-12T03:25:21.780Z,3.00
2023-05-12T03:26:21.784Z,3.00
2023-05-12T03:27:21.826Z,4.00
2023-05-12T03:28:21.742Z,5.00
2023-05-12T03:29:21.745Z,5.00
2023-05-12T03:30:21.860Z,6.00
2023-05-12T03:31:21.782Z,8.00
2023-05-12T03:32:21.747Z,10.00
2023-05-12T03:33:21.754Z,12.00
2023-05-12T03:34:21.737Z,15.00
2023-05-12T03:35:21.685Z,18.00
2023-05-12T03:36:21.668Z,22.00
2023-05-12T03:37:21.671Z,24.00
2023-05-12T03:38:21.642Z,26.00
2023-05-12T03:39:21.684Z,29.00
2023-05-12T03:40:21.921Z,31.00
2023-05-12T03:41:21.603Z,33.00
2023-05-12T03:42:21.596Z,35.00
2023-05-12T03:43:21.610Z,37.00
2023-05-12T03:44:21.602Z,38.00
2023-05-12T03:45:21.601Z,41.00
2023-05-12T03:46:21.635Z,42.00
2023-05-12T03:47:21.618Z,44.00
2023-05-12T03:48:21.623Z,44.00
2023-05-12T03:49:21.522Z,43.00
2023-05-12T03:50:21.689Z,45.00
2023-05-12T03:51:21.512Z,47.00
2023-05-12T03:52:21.490Z,52.00
2023-05-12T03:53:21.545Z,57.00
2023-05-12T03:54:21.474Z,59.00
2023-05-12T03:55:21.476Z,63.00
2023-05-12T03:56:21.484Z,67.00
2023-05-12T03:57:21.434Z,73.00
2023-05-12T03:58:21.425Z,80.00
2023-05-12T03:59:21.450Z,87.00
2023-05-12T04:00:21.594Z,92.00
2023-05-12T04:01:21.423Z,97.00
2023-05-12T04:02:21.504Z,103.00
2023-05-12T04:03:21.461Z,108.00
2023-05-12T04:04:21.422Z,115.00
2023-05-12T04:05:21.367Z,121.00
2023-05-12T04:06:21.349Z,129.00
2023-05-12T04:07:21.358Z,137.00
2023-05-12T04:08:21.314Z,144.00
2023-05-12T04:09:21.321Z,153.00
2023-05-12T04:10:21.548Z,169.00
2023-05-12T04:11:21.311Z,177.00
2023-05-12T04:12:21.326Z,194.00
2023-05-12T04:13:21.263Z,202.00
2023-05-12T04:14:29.022Z,206.00
2023-05-12T04:15:21.318Z,214.00
2023-05-12T04:16:21.261Z,222.00
2023-05-12T04:17:21.278Z,235.00
2023-05-12T04:18:21.240Z,257.00
2023-05-12T04:19:21.232Z,282.00
2023-05-12T04:20:21.341Z,300.00
2023-05-12T04:21:21.175Z,316.00
2023-05-12T04:22:22.856Z,325.00
2023-05-12T04:23:21.309Z,344.00
2023-05-12T04:24:21.162Z,357.00
2023-05-12T04:25:21.138Z,365.00
2023-05-12T04:26:21.127Z,372.00
2023-05-12T04:27:21.148Z,379.00
2023-05-12T04:28:21.102Z,389.00
2023-05-12T04:29:21.171Z,398.00
2023-05-12T04:30:21.234Z,408.00
2023-05-12T04:31:21.195Z,419.00
2023-05-12T04:32:21.086Z,431.00
2023-05-12T04:33:21.075Z,440.00
2023-05-12T04:34:21.051Z,440.00
2023-05-12T04:35:21.037Z,451.00
2023-05-12T04:36:21.069Z,460.00
2023-05-12T04:37:21.038Z,467.00
2023-05-12T04:38:20.985Z,468.00
2023-05-12T04:39:21.052Z,480.00
2023-05-12T04:40:21.387Z,483.00
2023-05-12T04:41:21.074Z,498.00
2023-05-12T04:42:20.965Z,503.00
2023-05-12T04:44:20.981Z,530.00
2023-05-12T04:45:21.137Z,545.00
2023-05-12T04:46:20.998Z,558.00
2023-05-12T04:47:20.959Z,575.00
2023-05-12T04:48:20.898Z,601.00
2023-05-12T04:49:20.882Z,616.00
2023-05-12T04:50:20.914Z,633.00
2023-05-12T04:51:20.888Z,655.00
2023-05-12T04:52:20.868Z,677.00
2023-05-12T04:53:20.839Z,700.00
2023-05-12T04:54:20.834Z,715.00
2023-05-12T04:55:21.078Z,738.00
2023-05-12T04:56:20.833Z,763.00
2023-05-12T04:57:20.811Z,767.00
2023-05-12T04:58:20.820Z,790.00
2023-05-12T04:59:20.799Z,806.00
2023-05-12T05:00:20.782Z,819.00
2023-05-12T05:01:20.805Z,835.00
2023-05-12T05:02:20.811Z,848.00
2023-05-12T05:03:20.855Z,857.00
2023-05-12T05:04:20.727Z,875.00
2023-05-12T05:05:20.918Z,887.00
2023-05-12T05:06:20.752Z,922.00
2023-05-12T05:07:20.720Z,940.00
2023-05-12T05:08:20.730Z,948.00
2023-05-12T05:09:21.483Z,954.00
2023-05-12T05:10:20.821Z,967.00
2023-05-12T05:11:20.845Z,960.00
2023-05-12T05:12:20.729Z,972.00
2023-05-12T05:13:20.788Z,971.00
2023-05-12T05:14:20.710Z,965.00
2023-05-12T05:15:21.531Z,969.00
2023-05-12T05:16:20.727Z,985.00
2023-05-12T05:17:20.699Z,994.00
2023-05-12T05:18:23.840Z,994.00
2023-05-12T05:19:30.595Z,1008.00
2023-05-12T05:20:20.890Z,1033.00
2023-05-12T05:21:20.617Z,1019.00
2023-05-12T05:22:20.529Z,1021.00
2023-05-12T05:23:20.540Z,1030.00
2023-05-12T05:24:20.564Z,1055.00
2023-05-12T05:25:21.200Z,1053.00
2023-05-12T05:26:20.543Z,1053.00
2023-05-12T05:27:20.590Z,1073.00
2023-05-12T05:28:20.497Z,1085.00
2023-05-12T05:29:20.519Z,1098.00
2023-05-12T05:30:20.485Z,1116.00
2023-05-12T05:31:20.518Z,1152.00
2023-05-12T05:32:20.468Z,1173.00
2023-05-12T05:33:20.447Z,1188.00
2023-05-12T05:34:20.507Z,1213.00
2023-05-12T05:35:20.569Z,1223.00
2023-05-12T05:36:20.484Z,1249.00
2023-05-12T05:37:20.406Z,1260.00
2023-05-12T05:38:20.388Z,1282.00
2023-05-12T05:39:20.392Z,1301.00
2023-05-12T05:40:20.357Z,1324.00
2023-05-12T05:41:20.336Z,1353.00
2023-05-12T05:42:20.422Z,1368.00
2023-05-12T05:43:20.371Z,1390.00
2023-05-12T05:44:20.376Z,1379.00
2023-05-12T05:45:20.426Z,1337.00
2023-05-12T05:46:20.317Z,1326.00
2023-05-12T05:47:21.271Z,1297.00
2023-05-12T05:48:20.496Z,1276.00
2023-05-12T05:49:20.311Z,1256.00
2023-05-12T05:50:20.265Z,1252.00
2023-05-12T05:51:20.257Z,1250.00
2023-05-12T05:52:20.213Z,1235.00
2023-05-12T05:53:20.285Z,1278.00
2023-05-12T05:54:20.209Z,1321.00
2023-05-12T05:55:20.385Z,1355.00
2023-05-12T05:56:20.223Z,1388.00
2023-05-12T05:57:20.229Z,1425.00
2023-05-12T05:58:20.162Z,1465.00
2023-05-12T05:59:20.350Z,1478.00
2023-05-12T06:00:20.201Z,1514.00
2023-05-12T06:01:20.307Z,1517.00
2023-05-12T06:02:20.295Z,1467.00
2023-05-12T06:03:20.261Z,1472.00
2023-05-12T06:04:20.300Z,1552.00
2023-05-12T06:05:20.276Z,1567.00
2023-05-12T06:06:20.099Z,1565.00
2023-05-12T06:07:21.993Z,1509.00
2023-05-12T06:08:20.051Z,1443.00
2023-05-12T06:09:20.066Z,1402.00
2023-05-12T06:10:20.305Z,1319.00
2023-05-12T06:11:20.010Z,1305.00
2023-05-12T06:12:19.993Z,1316.00
2023-05-12T06:13:24.629Z,1394.00
2023-05-12T06:14:20.158Z,1390.00
2023-05-12T06:15:20.365Z,1434.00
2023-05-12T06:16:19.966Z,1390.00
2023-05-12T06:17:20.086Z,1590.00
2023-05-12T06:18:19.958Z,1602.00
2023-05-12T06:19:19.991Z,1668.00
2023-05-12T06:20:19.956Z,1698.00
2023-05-12T06:21:19.961Z,1726.00
2023-05-12T06:22:20.079Z,1676.00
2023-05-12T06:23:19.885Z,1952.00
2023-05-12T06:24:19.877Z,1366.00
2023-05-12T06:25:20.129Z,1095.00
2023-05-12T06:26:19.881Z,3967.00
2023-05-12T06:27:19.907Z,1726.00
2023-05-12T06:28:19.861Z,1917.00
2023-05-12T06:29:19.913Z,2804.00
2023-05-12T06:30:21.450Z,1722.00
2023-05-12T06:31:19.819Z,1343.00
2023-05-12T06:32:19.831Z,2600.00
2023-05-12T06:33:19.923Z,3325.00
2023-05-12T06:34:19.922Z,986.00
2023-05-12T06:35:20.001Z,2756.00
2023-05-12T06:36:20.109Z,1731.00
2023-05-12T06:37:19.848Z,2111.00
2023-05-12T06:38:19.855Z,3231.00
2023-05-12T06:39:19.762Z,2349.00
2023-05-12T06:40:19.709Z,2558.00
2023-05-12T06:41:19.813Z,1703.00
2023-05-12T06:42:19.775Z,3293.00
2023-05-12T06:43:19.657Z,2382.00
2023-05-12T06:44:19.645Z,3770.00
2023-05-12T06:45:20.026Z,2674.00
2023-05-12T06:46:19.644Z,2041.00
2023-05-12T06:47:19.609Z,2518.00
2023-05-12T06:48:19.586Z,2844.00
2023-05-12T06:49:19.650Z,2991.00
2023-05-12T06:50:19.574Z,2485.00
2023-05-12T06:51:19.591Z,2480.00
2023-05-12T06:52:19.635Z,2452.00
2023-05-12T06:53:24.894Z,2366.00
2023-05-12T06:54:19.723Z,1451.00
2023-05-12T06:55:19.977Z,3060.00
2023-05-12T06:56:19.720Z,2336.00
2023-05-12T06:57:19.532Z,1867.00
2023-05-12T06:58:19.507Z,3893.00
2023-05-12T06:59:21.316Z,2853.00
2023-05-12T07:00:19.503Z,2567.00
2023-05-12T07:01:19.594Z,2551.00
2023-05-12T07:02:19.524Z,1151.00
2023-05-12T07:03:19.580Z,3969.00
2023-05-12T07:04:19.466Z,2878.00
2023-05-12T07:05:19.923Z,2365.00
2023-05-12T07:06:19.594Z,2436.00
2023-05-12T07:07:19.418Z,2438.00
2023-05-12T07:08:19.423Z,2379.00
2023-05-12T07:09:19.400Z,2356.00
2023-05-12T07:10:19.513Z,2521.00
2023-05-12T07:11:19.397Z,2650.00
2023-05-12T07:12:19.458Z,2525.00
2023-05-12T07:13:19.368Z,2567.00
2023-05-12T07:14:19.359Z,2656.00
2023-05-12T07:15:19.721Z,2702.00
2023-05-12T07:16:19.395Z,2628.00
2023-05-12T07:17:19.278Z,2599.00
2023-05-12T07:18:19.294Z,2641.00
2023-05-12T07:19:19.573Z,2534.00
2023-05-12T07:20:19.457Z,2560.00
2023-05-12T07:21:19.245Z,2644.00
2023-05-12T07:22:19.264Z,2657.00
2023-05-12T07:23:19.219Z,2741.00
2023-05-12T07:24:19.229Z,2919.00
2023-05-12T07:25:19.471Z,2900.00
2023-05-12T07:26:19.356Z,2947.00
2023-05-12T07:27:19.876Z,2714.00
2023-05-12T07:28:19.171Z,2759.00
2023-05-12T07:29:19.166Z,2197.00
2023-05-12T07:30:19.233Z,2905.00
2023-05-12T07:31:19.191Z,4061.00
2023-05-12T07:32:19.194Z,2873.00
2023-05-12T07:33:19.130Z,2879.00
2023-05-12T07:34:19.160Z,3222.00
2023-05-12T07:35:19.383Z,1807.00
2023-05-12T07:36:20.685Z,4057.00
2023-05-12T07:37:19.078Z,3132.00
2023-05-12T07:38:19.092Z,2119.00
2023-05-12T07:39:19.073Z,3985.00
2023-05-12T07:40:19.270Z,2330.00
2023-05-12T07:41:19.043Z,2966.00
2023-05-12T07:42:19.046Z,2305.00
2023-05-12T07:43:19.017Z,3984.00
2023-05-12T07:44:19.011Z,4058.00
2023-05-12T07:45:19.146Z,2725.00
2023-05-12T07:46:19.078Z,3778.00
2023-05-12T07:47:21.973Z,2300.00
2023-05-12T07:48:18.963Z,4831.00
2023-05-12T07:49:18.997Z,2738.00
2023-05-12T07:50:18.970Z,3070.00
2023-05-12T07:51:18.988Z,2459.00
2023-05-12T07:52:18.919Z,3539.00
2023-05-12T07:53:18.926Z,1332.00
2023-05-12T07:54:18.944Z,4592.00
2023-05-12T07:55:19.246Z,3188.00
2023-05-12T07:56:18.888Z,1723.00
2023-05-12T07:57:18.891Z,4557.00
2023-05-12T07:58:18.865Z,2334.00
2023-05-12T07:59:20.700Z,2529.00
2023-05-12T08:00:18.861Z,4415.00
2023-05-12T08:01:18.820Z,3573.00
2023-05-12T08:02:18.885Z,1853.00
2023-05-12T08:03:18.883Z,4376.00
2023-05-12T08:04:18.843Z,3019.00
2023-05-12T08:05:19.008Z,2980.00
2023-05-12T08:06:18.810Z,3302.00
2023-05-12T08:07:18.775Z,2418.00
2023-05-12T08:08:18.745Z,3280.00
2023-05-12T08:09:18.768Z,3530.00
2023-05-12T08:10:18.757Z,2511.00
2023-05-12T08:11:19.373Z,4120.00
2023-05-12T08:12:18.698Z,3164.00
2023-05-12T08:13:18.750Z,3640.00
2023-05-12T08:14:18.708Z,3409.00
2023-05-12T08:15:18.929Z,2838.00
2023-05-12T08:16:21.427Z,4264.00
2023-05-12T08:17:18.766Z,4106.00
2023-05-12T08:18:18.714Z,3497.00
2023-05-12T08:19:18.625Z,3382.00
2023-05-12T08:20:18.657Z,4024.00
2023-05-12T08:21:21.419Z,3694.00
2023-05-12T08:22:18.614Z,3625.00
2023-05-12T08:23:18.597Z,3558.00
2023-05-12T08:24:18.643Z,3539.00
2023-05-12T08:25:19.618Z,3759.00
2023-05-12T08:26:18.554Z,3757.00
2023-05-12T08:27:19.410Z,3904.00
2023-05-12T08:28:18.555Z,3872.00
2023-05-12T08:29:18.532Z,4012.00
2023-05-12T08:30:19.395Z,4157.00
2023-05-12T08:31:18.561Z,4380.00
2023-05-12T08:32:18.488Z,4751.00
2023-05-12T08:33:18.546Z,4384.00
2023-05-12T08:34:19.791Z,4197.00
2023-05-12T08:35:18.830Z,4123.00
2023-05-12T08:36:18.644Z,3919.00
2023-05-12T08:37:19.742Z,3772.00
2023-05-12T08:38:18.445Z,3523.00
2023-05-12T08:39:18.473Z,3455.00
2023-05-12T08:40:18.480Z,3537.00
2023-05-12T08:41:18.457Z,3558.00
2023-05-12T08:42:18.381Z,3634.00
2023-05-12T08:43:18.398Z,3614.00
2023-05-12T08:44:18.353Z,3970.00
2023-05-12T08:45:18.655Z,3814.00
2023-05-12T08:46:18.656Z,3917.00
2023-05-12T08:47:18.320Z,3707.00
2023-05-12T08:48:18.326Z,3616.00
2023-05-12T08:49:18.383Z,3706.00
2023-05-12T08:50:18.306Z,3776.00
2023-05-12T08:51:18.272Z,3875.00
2023-05-12T08:52:18.270Z,3749.00
2023-05-12T08:53:18.306Z,4469.00
2023-05-12T08:54:18.295Z,4163.00
2023-05-12T08:55:18.341Z,4223.00
2023-05-12T08:57:18.232Z,4208.00
2023-05-12T08:58:19.001Z,4210.00
2023-05-12T08:59:18.209Z,4247.00
2023-05-12T09:00:18.281Z,4166.00
2023-05-12T09:01:18.400Z,4100.00
2023-05-12T09:02:18.262Z,4004.00
2023-05-12T09:03:18.164Z,3918.00
2023-05-12T09:04:18.199Z,3939.00
2023-05-12T09:05:18.216Z,3807.00
2023-05-12T09:06:18.114Z,3727.00
2023-05-12T09:07:18.088Z,3733.00
2023-05-12T09:08:18.139Z,3747.00
2023-05-12T09:09:18.298Z,3727.00
2023-05-12T09:10:32.815Z,3704.00
2023-05-12T09:11:18.054Z,3677.00
2023-05-12T09:12:18.365Z,3704.00
2023-05-12T09:13:18.024Z,3698.00
2023-05-12T09:14:18.027Z,3684.00
2023-05-12T09:15:18.215Z,3694.00
2023-05-12T09:16:19.459Z,3715.00
2023-05-12T09:17:18.002Z,3758.00
2023-05-12T09:18:18.007Z,3809.00
2023-05-12T09:19:17.998Z,3840.00
2023-05-12T09:20:30.408Z,3850.00
2023-05-12T09:21:17.973Z,3908.00
2023-05-12T09:22:17.971Z,3991.00
2023-05-12T09:23:17.919Z,4006.00
2023-05-12T09:24:17.928Z,4150.00
2023-05-12T09:25:18.013Z,4199.00
2023-05-12T09:26:18.049Z,4266.00
2023-05-12T09:27:17.863Z,4362.00
2023-05-12T09:28:17.871Z,4375.00
2023-05-12T09:29:30.852Z,4490.00
2023-05-12T09:30:17.887Z,4552.00
2023-05-12T09:31:17.923Z,4653.00
2023-05-12T09:32:17.847Z,4696.00
2023-05-12T09:33:17.824Z,4757.00
2023-05-12T09:34:17.977Z,4825.00
2023-05-12T09:35:17.972Z,4953.00
2023-05-12T09:36:17.875Z,5042.00
2023-05-12T09:37:25.179Z,5077.00
2023-05-12T09:38:18.206Z,5129.00
2023-05-12T09:39:20.778Z,5075.00
2023-05-12T09:40:18.945Z,5065.00
2023-05-12T09:41:17.760Z,5110.00
2023-05-12T09:42:17.746Z,5089.00
2023-05-12T09:43:17.732Z,5081.00
2023-05-12T09:44:17.698Z,5034.00
2023-05-12T09:45:17.868Z,4960.00
2023-05-12T09:46:17.829Z,4960.00
2023-05-12T09:47:17.697Z,4990.00
2023-05-12T09:48:17.740Z,5016.00
2023-05-12T09:49:17.655Z,5034.00
2023-05-12T09:50:17.671Z,5025.00
2023-05-12T09:51:17.633Z,5118.00
2023-05-12T09:52:18.561Z,5140.00
2023-05-12T09:53:17.700Z,5184.00
2023-05-12T09:54:18.196Z,5202.00
2023-05-12T09:55:17.684Z,5302.00
2023-05-12T09:56:17.576Z,5330.00
2023-05-12T09:57:17.615Z,5346.00
2023-05-12T09:58:17.769Z,5408.00
2023-05-12T09:59:17.532Z,5575.00
2023-05-12T10:00:33.222Z,5633.00
2023-05-12T10:01:22.572Z,5638.00
2023-05-12T10:02:17.564Z,5893.00
2023-05-12T10:03:17.697Z,6064.00
2023-05-12T10:04:17.520Z,6150.00
2023-05-12T10:05:17.558Z,6256.00
2023-05-12T10:06:17.465Z,6158.00
2023-05-12T10:07:17.684Z,6249.00
2023-05-12T10:08:17.526Z,6800.00
2023-05-12T10:09:17.446Z,6814.00
2023-05-12T10:10:17.441Z,6700.00
2023-05-12T10:11:17.428Z,6867.00
2023-05-12T10:12:17.417Z,6734.00
2023-05-12T10:13:17.402Z,6891.00
2023-05-12T10:14:17.401Z,6785.00
2023-05-12T10:15:17.451Z,6826.00
2023-05-12T10:16:17.645Z,6995.00
2023-05-12T10:17:17.579Z,6983.00
2023-05-12T10:18:17.502Z,6657.00
2023-05-12T10:19:17.336Z,7128.00
2023-05-12T10:20:17.484Z,7242.00
2023-05-12T10:21:17.326Z,7034.00
2023-05-12T10:22:17.338Z,6960.00
2023-05-12T10:23:17.386Z,7174.00
2023-05-12T10:24:17.370Z,7321.00
2023-05-12T10:25:17.459Z,6982.00
2023-05-12T10:26:17.285Z,7452.00
2023-05-12T10:27:17.318Z,7656.00
2023-05-12T10:28:17.776Z,7047.00
2023-05-12T10:29:17.217Z,7590.00
2023-05-12T10:30:17.269Z,7206.00
2023-05-12T10:31:17.219Z,7642.00
2023-05-12T10:32:17.249Z,7399.00
2023-05-12T10:33:17.284Z,7379.00
2023-05-12T10:34:17.992Z,7714.00
2023-05-12T10:35:18.389Z,7632.00
2023-05-12T10:36:17.151Z,7641.00
2023-05-12T10:37:17.198Z,7629.00
2023-05-12T10:38:17.216Z,7643.00
2023-05-12T10:39:17.112Z,7505.00
2023-05-12T10:40:17.104Z,7726.00
2023-05-12T10:41:17.101Z,7705.00
2023-05-12T10:42:17.104Z,7666.00
2023-05-12T10:43:17.238Z,8124.00
2023-05-12T10:44:17.074Z,8021.00
2023-05-12T10:45:17.163Z,7795.00
2023-05-12T10:46:18.404Z,7736.00
2023-05-12T10:47:17.081Z,8199.00
2023-05-12T10:48:17.138Z,8343.00
2023-05-12T10:49:17.031Z,8071.00
2023-05-12T10:50:16.989Z,8305.00
2023-05-12T10:51:16.965Z,8356.00
2023-05-12T10:52:19.884Z,8567.00
2023-05-12T10:53:16.986Z,8490.00
2023-05-12T10:54:17.151Z,8429.00
2023-05-12T10:55:16.988Z,8377.00
2023-05-12T10:56:17.272Z,7858.00
2023-05-12T10:57:19.141Z,8794.00
2023-05-12T10:58:17.156Z,8686.00
2023-05-12T10:59:17.424Z,7553.00
2023-05-12T11:00:17.460Z,8371.00
2023-05-12T11:01:17.030Z,7416.00
2023-05-12T11:02:17.649Z,7675.00
2023-05-12T11:03:20.515Z,7343.00
2023-05-12T11:04:17.594Z,8016.00
2023-05-12T11:05:17.239Z,7712.00
2023-05-12T11:06:17.295Z,7654.00
2023-05-12T11:07:17.096Z,7477.00
2023-05-12T11:08:17.749Z,7824.00
2023-05-12T11:09:17.714Z,6861.00
2023-05-12T11:10:18.114Z,8985.00
2023-05-12T11:11:17.607Z,7920.00
2023-05-12T11:12:16.756Z,6510.00
2023-05-12T11:13:16.770Z,8210.00
2023-05-12T11:14:16.770Z,6619.00
2023-05-12T11:15:18.085Z,8114.00
2023-05-12T11:16:16.791Z,6303.00
2023-05-12T11:17:16.781Z,7816.00
2023-05-12T11:18:16.745Z,7793.00
2023-05-12T11:19:16.715Z,5888.00
2023-05-12T11:20:16.712Z,7423.00
2023-05-12T11:21:16.678Z,6774.00
2023-05-12T11:22:16.665Z,6034.00
2023-05-12T11:23:16.655Z,6262.00
2023-05-12T11:24:16.757Z,5986.00
2023-05-12T11:25:16.647Z,5731.00
2023-05-12T11:26:16.847Z,5624.00
2023-05-12T11:27:16.625Z,5598.00
2023-05-12T11:28:16.590Z,5564.00
2023-05-12T11:29:16.590Z,5567.00
2023-05-12T11:30:16.609Z,5488.00
2023-05-12T11:31:16.666Z,5736.00
2023-05-12T11:32:17.372Z,5769.00
2023-05-12T11:33:16.617Z,5578.00
2023-05-12T11:34:16.529Z,5769.00
2023-05-12T11:35:16.581Z,5682.00
2023-05-12T11:36:16.613Z,5794.00
2023-05-12T11:37:16.498Z,5766.00
2023-05-12T11:38:16.568Z,5851.00
2023-05-12T11:39:16.619Z,5775.00
2023-05-12T11:40:16.505Z,9063.00
2023-05-12T11:41:16.457Z,5234.00
2023-05-12T11:42:20.050Z,5639.00
2023-05-12T11:43:16.444Z,6233.00
2023-05-12T11:44:16.463Z,6893.00
2023-05-12T11:45:16.566Z,6350.00
2023-05-12T11:46:16.458Z,6649.00
2023-05-12T11:47:16.677Z,5673.00
2023-05-12T11:48:16.628Z,7355.00
2023-05-12T11:49:16.378Z,5344.00
2023-05-12T11:50:16.348Z,7607.00
2023-05-12T11:51:16.481Z,8249.00
2023-05-12T11:52:16.418Z,7991.00
2023-05-12T11:53:16.330Z,8459.00
2023-05-12T11:54:16.323Z,6972.00
2023-05-12T11:55:17.429Z,8954.00
2023-05-12T11:56:16.293Z,7916.00
2023-05-12T11:57:16.282Z,7739.00
2023-05-12T11:58:16.315Z,7820.00
2023-05-12T11:59:16.464Z,6765.00
2023-05-12T12:00:16.343Z,7424.00
2023-05-12T12:01:16.251Z,7158.00
2023-05-12T12:02:19.564Z,6688.00
2023-05-12T12:03:16.608Z,6563.00
2023-05-12T12:04:16.353Z,6003.00
2023-05-12T12:05:16.207Z,6479.00
2023-05-12T12:06:16.196Z,6323.00
2023-05-12T12:07:16.319Z,6316.00
2023-05-12T12:08:16.168Z,6252.00
2023-05-12T12:09:16.185Z,6111.00
2023-05-12T12:10:16.143Z,6045.00
2023-05-12T12:11:16.148Z,5874.00
2023-05-12T12:12:16.120Z,5868.00
2023-05-12T12:13:16.121Z,5877.00
2023-05-12T12:14:16.147Z,6264.00
2023-05-12T12:15:16.120Z,6163.00
2023-05-12T12:16:16.138Z,6097.00
2023-05-12T12:17:16.110Z,6158.00
2023-05-12T12:18:16.067Z,5951.00
2023-05-12T12:19:16.145Z,5658.00
2023-05-12T12:20:16.053Z,6348.00
2023-05-12T12:21:18.331Z,8221.00
2023-05-12T12:22:16.045Z,7395.00
2023-05-12T12:23:16.064Z,6375.00
2023-05-12T12:24:16.025Z,6501.00
2023-05-12T12:25:16.027Z,6391.00
2023-05-12T12:26:16.065Z,6566.00
2023-05-12T12:27:15.999Z,6180.00
2023-05-12T12:28:15.995Z,6521.00
2023-05-12T12:29:15.960Z,6522.00
2023-05-12T12:30:15.936Z,10210.00
2023-05-12T12:31:16.086Z,7050.00